sensor_id;sensor_type;location;lat;lon;timestamp;P1;durP1;ratioP1;P2;durP2;ratioP2
18308;SDS011;9280;50.276;18.650;2022-07-23T00:02:31;13.20;;;8.23;;
18308;SDS011;9280;50.276;18.650;2022-07-23T00:05:17;19.50;;;11.57;;
18308;SDS011;9280;50.276;18.650;2022-07-23T00:08:05;16.80;;;11.00;;
18308;SDS011;9280;50.276;18.650;2022-07-23T00:10:52;18.10;;;12.77;;
18308;SDS011;9280;50.276;18.650;2022-07-23T00:13:40;21.40;;;13.40;;
18308;SDS011;9280;50.276;18.650;2022-07-23T00:16:27;27.90;;;14.43;;
18308;SDS011;9280;50.276;18.650;2022-07-23T00:19:14;32.63;;;15.50;;
18308;SDS011;9280;50.276;18.650;2022-07-23T00:22:01;26.97;;;16.30;;
18308;SDS011;9280;50.276;18.650;2022-07-23T00:24:48;28.03;;;16.33;;
18308;SDS011;9280;50.276;18.650;2022-07-23T00:27:35;21.20;;;17.10;;
18308;SDS011;9280;50.276;18.650;2022-07-23T00:30:21;31.80;;;17.80;;
18308;SDS011;9280;50.276;18.650;2022-07-23T00:33:08;27.27;;;16.90;;
18308;SDS011;9280;50.276;18.650;2022-07-23T00:35:54;29.13;;;17.07;;
18308;SDS011;9280;50.276;18.650;2022-07-23T00:38:40;21.80;;;13.83;;
18308;SDS011;9280;50.276;18.650;2022-07-23T00:41:30;25.03;;;13.93;;
18308;SDS011;9280;50.276;18.650;2022-07-23T00:44:17;18.33;;;13.10;;
18308;SDS011;9280;50.276;18.650;2022-07-23T00:47:05;19.77;;;12.67;;
18308;SDS011;9280;50.276;18.650;2022-07-23T00:49:51;30.83;;;18.07;;
18308;SDS011;9280;50.276;18.650;2022-07-23T00:52:38;38.73;;;17.97;;
18308;SDS011;9280;50.276;18.650;2022-07-23T00:55:25;23.97;;;16.80;;
18308;SDS011;9280;50.276;18.650;2022-07-23T00:58:13;24.47;;;14.87;;
18308;SDS011;9280;50.276;18.650;2022-07-23T01:01:02;28.53;;;13.43;;
18308;SDS011;9280;50.276;18.650;2022-07-23T01:03:48;21.23;;;15.00;;
18308;SDS011;9280;50.276;18.650;2022-07-23T01:06:35;22.73;;;14.57;;
18308;SDS011;9280;50.276;18.650;2022-07-23T01:09:23;27.80;;;14.93;;
18308;SDS011;9280;50.276;18.650;2022-07-23T01:12:10;24.77;;;15.40;;
18308;SDS011;9280;50.276;18.650;2022-07-23T01:14:58;24.60;;;14.53;;
18308;SDS011;9280;50.276;18.650;2022-07-23T01:17:47;28.97;;;15.47;;
18308;SDS011;9280;50.276;18.650;2022-07-23T01:20:34;21.77;;;14.30;;
18308;SDS011;9280;50.276;18.650;2022-07-23T01:23:22;26.97;;;15.20;;
18308;SDS011;9280;50.276;18.650;2022-07-23T01:26:13;23.93;;;14.77;;
18308;SDS011;9280;50.276;18.650;2022-07-23T01:29:02;18.90;;;13.97;;
18308;SDS011;9280;50.276;18.650;2022-07-23T01:31:52;24.53;;;14.83;;
18308;SDS011;9280;50.276;18.650;2022-07-23T01:34:38;28.23;;;15.33;;
18308;SDS011;9280;50.276;18.650;2022-07-23T01:37:25;25.77;;;13.37;;
18308;SDS011;9280;50.276;18.650;2022-07-23T01:40:13;18.47;;;13.90;;
18308;SDS011;9280;50.276;18.650;2022-07-23T01:43:00;25.90;;;14.93;;
18308;SDS011;9280;50.276;18.650;2022-07-23T01:45:48;29.47;;;15.97;;
18308;SDS011;9280;50.276;18.650;2022-07-23T01:48:34;31.47;;;15.97;;
18308;SDS011;9280;50.276;18.650;2022-07-23T01:51:39;25.97;;;14.77;;
18308;SDS011;9280;50.276;18.650;2022-07-23T01:54:45;26.53;;;16.27;;
18308;SDS011;9280;50.276;18.650;2022-07-23T01:57:33;26.27;;;15.63;;
18308;SDS011;9280;50.276;18.650;2022-07-23T02:00:19;21.73;;;14.23;;
18308;SDS011;9280;50.276;18.650;2022-07-23T02:03:09;26.90;;;15.93;;
18308;SDS011;9280;50.276;18.650;2022-07-23T02:05:55;25.23;;;16.13;;
18308;SDS011;9280;50.276;18.650;2022-07-23T02:08:42;26.00;;;15.33;;
18308;SDS011;9280;50.276;18.650;2022-07-23T02:11:29;25.00;;;15.70;;
18308;SDS011;9280;50.276;18.650;2022-07-23T02:14:16;27.00;;;15.90;;
18308;SDS011;9280;50.276;18.650;2022-07-23T02:17:04;24.70;;;15.70;;
18308;SDS011;9280;50.276;18.650;2022-07-23T02:19:53;24.70;;;16.53;;
18308;SDS011;9280;50.276;18.650;2022-07-23T02:22:39;25.37;;;16.60;;
18308;SDS011;9280;50.276;18.650;2022-07-23T02:25:27;27.57;;;16.23;;
18308;SDS011;9280;50.276;18.650;2022-07-23T02:28:18;25.10;;;15.93;;
18308;SDS011;9280;50.276;18.650;2022-07-23T02:31:06;20.80;;;14.43;;
18308;SDS011;9280;50.276;18.650;2022-07-23T02:33:52;22.10;;;14.60;;
18308;SDS011;9280;50.276;18.650;2022-07-23T02:36:39;23.03;;;15.37;;
18308;SDS011;9280;50.276;18.650;2022-07-23T02:39:26;20.50;;;15.10;;
18308;SDS011;9280;50.276;18.650;2022-07-23T02:42:13;22.30;;;14.10;;
18308;SDS011;9280;50.276;18.650;2022-07-23T02:45:01;21.80;;;14.30;;
18308;SDS011;9280;50.276;18.650;2022-07-23T02:47:49;21.63;;;13.90;;
18308;SDS011;9280;50.276;18.650;2022-07-23T02:50:35;24.40;;;14.27;;
18308;SDS011;9280;50.276;18.650;2022-07-23T02:53:22;22.10;;;14.00;;
18308;SDS011;9280;50.276;18.650;2022-07-23T02:56:09;27.37;;;14.90;;
18308;SDS011;9280;50.276;18.650;2022-07-23T02:58:59;27.37;;;14.73;;
18308;SDS011;9280;50.276;18.650;2022-07-23T03:01:46;25.93;;;16.03;;
18308;SDS011;9280;50.276;18.650;2022-07-23T03:04:34;28.30;;;15.30;;
18308;SDS011;9280;50.276;18.650;2022-07-23T03:07:20;34.63;;;16.00;;
18308;SDS011;9280;50.276;18.650;2022-07-23T03:10:10;20.93;;;15.00;;
18308;SDS011;9280;50.276;18.650;2022-07-23T03:12:56;21.27;;;15.13;;
18308;SDS011;9280;50.276;18.650;2022-07-23T03:15:42;24.17;;;16.17;;
18308;SDS011;9280;50.276;18.650;2022-07-23T03:18:28;24.83;;;15.17;;
18308;SDS011;9280;50.276;18.650;2022-07-23T03:21:16;23.57;;;14.20;;
18308;SDS011;9280;50.276;18.650;2022-07-23T03:24:04;22.70;;;15.87;;
18308;SDS011;9280;50.276;18.650;2022-07-23T03:26:50;25.20;;;15.53;;
18308;SDS011;9280;50.276;18.650;2022-07-23T03:29:36;24.73;;;15.63;;
18308;SDS011;9280;50.276;18.650;2022-07-23T03:32:23;29.50;;;16.50;;
18308;SDS011;9280;50.276;18.650;2022-07-23T03:35:12;24.97;;;15.10;;
18308;SDS011;9280;50.276;18.650;2022-07-23T03:38:09;27.47;;;15.90;;
18308;SDS011;9280;50.276;18.650;2022-07-23T03:40:58;25.10;;;15.00;;
18308;SDS011;9280;50.276;18.650;2022-07-23T03:43:45;22.07;;;14.70;;
18308;SDS011;9280;50.276;18.650;2022-07-23T03:46:31;27.37;;;14.73;;
18308;SDS011;9280;50.276;18.650;2022-07-23T03:49:18;31.10;;;16.23;;
18308;SDS011;9280;50.276;18.650;2022-07-23T03:52:05;21.77;;;14.10;;
18308;SDS011;9280;50.276;18.650;2022-07-23T03:54:53;32.47;;;15.53;;
18308;SDS011;9280;50.276;18.650;2022-07-23T03:57:42;19.83;;;14.40;;
18308;SDS011;9280;50.276;18.650;2022-07-23T04:00:28;21.43;;;13.77;;
18308;SDS011;9280;50.276;18.650;2022-07-23T04:03:16;24.67;;;13.97;;
18308;SDS011;9280;50.276;18.650;2022-07-23T04:06:02;25.77;;;15.53;;
18308;SDS011;9280;50.276;18.650;2022-07-23T04:08:49;20.70;;;13.93;;
18308;SDS011;9280;50.276;18.650;2022-07-23T04:11:37;27.47;;;14.60;;
18308;SDS011;9280;50.276;18.650;2022-07-23T04:14:26;23.70;;;14.30;;
18308;SDS011;9280;50.276;18.650;2022-07-23T04:17:17;31.23;;;14.80;;
18308;SDS011;9280;50.276;18.650;2022-07-23T04:20:03;26.57;;;15.33;;
18308;SDS011;9280;50.276;18.650;2022-07-23T04:22:56;19.90;;;13.73;;
18308;SDS011;9280;50.276;18.650;2022-07-23T04:25:45;27.37;;;14.53;;
18308;SDS011;9280;50.276;18.650;2022-07-23T04:28:33;23.77;;;14.10;;
18308;SDS011;9280;50.276;18.650;2022-07-23T04:31:20;32.03;;;14.83;;
18308;SDS011;9280;50.276;18.650;2022-07-23T04:34:06;22.77;;;14.63;;
18308;SDS011;9280;50.276;18.650;2022-07-23T04:36:53;29.70;;;14.57;;
18308;SDS011;9280;50.276;18.650;2022-07-23T04:39:40;20.00;;;14.13;;
18308;SDS011;9280;50.276;18.650;2022-07-23T04:42:26;23.30;;;14.23;;
18308;SDS011;9280;50.276;18.650;2022-07-23T04:45:15;28.20;;;15.17;;
18308;SDS011;9280;50.276;18.650;2022-07-23T04:48:03;23.00;;;14.23;;
18308;SDS011;9280;50.276;18.650;2022-07-23T04:50:50;23.60;;;14.63;;
18308;SDS011;9280;50.276;18.650;2022-07-23T04:53:40;22.70;;;14.17;;
18308;SDS011;9280;50.276;18.650;2022-07-23T04:56:28;21.40;;;14.97;;
18308;SDS011;9280;50.276;18.650;2022-07-23T04:59:14;20.40;;;13.87;;
18308;SDS011;9280;50.276;18.650;2022-07-23T05:02:03;19.77;;;14.37;;
18308;SDS011;9280;50.276;18.650;2022-07-23T05:04:49;22.03;;;14.77;;
18308;SDS011;9280;50.276;18.650;2022-07-23T05:07:38;24.93;;;14.73;;
18308;SDS011;9280;50.276;18.650;2022-07-23T05:10:24;28.43;;;14.60;;
18308;SDS011;9280;50.276;18.650;2022-07-23T05:13:10;23.63;;;14.70;;
18308;SDS011;9280;50.276;18.650;2022-07-23T05:15:56;30.30;;;17.40;;
18308;SDS011;9280;50.276;18.650;2022-07-23T05:18:45;40.97;;;21.27;;
18308;SDS011;9280;50.276;18.650;2022-07-23T05:21:31;36.67;;;20.80;;
18308;SDS011;9280;50.276;18.650;2022-07-23T05:24:17;46.87;;;24.03;;
18308;SDS011;9280;50.276;18.650;2022-07-23T05:27:04;41.90;;;23.00;;
18308;SDS011;9280;50.276;18.650;2022-07-23T05:29:51;46.80;;;22.53;;
18308;SDS011;9280;50.276;18.650;2022-07-23T05:32:38;46.23;;;23.57;;
18308;SDS011;9280;50.276;18.650;2022-07-23T05:35:31;35.43;;;20.27;;
18308;SDS011;9280;50.276;18.650;2022-07-23T05:38:50;35.17;;;19.97;;
18308;SDS011;9280;50.276;18.650;2022-07-23T05:41:36;34.67;;;19.60;;
18308;SDS011;9280;50.276;18.650;2022-07-23T05:44:23;30.37;;;18.90;;
18308;SDS011;9280;50.276;18.650;2022-07-23T05:47:12;30.30;;;18.80;;
18308;SDS011;9280;50.276;18.650;2022-07-23T05:49:59;26.80;;;16.47;;
18308;SDS011;9280;50.276;18.650;2022-07-23T05:52:58;28.87;;;17.33;;
18308;SDS011;9280;50.276;18.650;2022-07-23T05:56:06;32.33;;;18.30;;
18308;SDS011;9280;50.276;18.650;2022-07-23T05:58:54;28.87;;;18.90;;
18308;SDS011;9280;50.276;18.650;2022-07-23T06:01:41;37.30;;;21.50;;
18308;SDS011;9280;50.276;18.650;2022-07-23T06:04:30;61.40;;;25.93;;
18308;SDS011;9280;50.276;18.650;2022-07-23T06:07:33;70.60;;;30.10;;
18308;SDS011;9280;50.276;18.650;2022-07-23T06:10:22;78.03;;;31.17;;
18308;SDS011;9280;50.276;18.650;2022-07-23T06:13:09;88.17;;;31.30;;
18308;SDS011;9280;50.276;18.650;2022-07-23T06:15:55;77.13;;;31.17;;
18308;SDS011;9280;50.276;18.650;2022-07-23T06:18:42;87.43;;;32.63;;
18308;SDS011;9280;50.276;18.650;2022-07-23T06:21:29;94.23;;;33.37;;
18308;SDS011;9280;50.276;18.650;2022-07-23T06:24:16;90.57;;;33.03;;
18308;SDS011;9280;50.276;18.650;2022-07-23T06:27:05;82.63;;;31.10;;
18308;SDS011;9280;50.276;18.650;2022-07-23T06:29:53;84.87;;;30.10;;
18308;SDS011;9280;50.276;18.650;2022-07-23T06:32:39;66.97;;;26.80;;
18308;SDS011;9280;50.276;18.650;2022-07-23T06:35:26;58.77;;;22.70;;
18308;SDS011;9280;50.276;18.650;2022-07-23T06:38:12;39.20;;;19.27;;
18308;SDS011;9280;50.276;18.650;2022-07-23T06:40:59;35.13;;;18.60;;
18308;SDS011;9280;50.276;18.650;2022-07-23T06:43:47;37.90;;;19.10;;
18308;SDS011;9280;50.276;18.650;2022-07-23T06:46:34;34.07;;;18.93;;
18308;SDS011;9280;50.276;18.650;2022-07-23T06:49:21;35.63;;;18.37;;
18308;SDS011;9280;50.276;18.650;2022-07-23T06:52:07;25.57;;;16.43;;
18308;SDS011;9280;50.276;18.650;2022-07-23T06:54:54;31.23;;;16.27;;
18308;SDS011;9280;50.276;18.650;2022-07-23T06:57:43;27.57;;;16.10;;
18308;SDS011;9280;50.276;18.650;2022-07-23T07:00:31;31.13;;;17.03;;
18308;SDS011;9280;50.276;18.650;2022-07-23T07:03:18;29.37;;;15.20;;
18308;SDS011;9280;50.276;18.650;2022-07-23T07:06:05;24.23;;;16.17;;
18308;SDS011;9280;50.276;18.650;2022-07-23T07:08:52;24.13;;;14.73;;
18308;SDS011;9280;50.276;18.650;2022-07-23T07:11:40;34.17;;;15.30;;
18308;SDS011;9280;50.276;18.650;2022-07-23T07:14:26;30.20;;;14.80;;
18308;SDS011;9280;50.276;18.650;2022-07-23T07:17:15;28.53;;;16.30;;
18308;SDS011;9280;50.276;18.650;2022-07-23T07:20:02;32.23;;;15.80;;
18308;SDS011;9280;50.276;18.650;2022-07-23T07:22:49;25.17;;;15.87;;
18308;SDS011;9280;50.276;18.650;2022-07-23T07:25:38;26.27;;;14.83;;
18308;SDS011;9280;50.276;18.650;2022-07-23T07:28:24;33.87;;;17.77;;
18308;SDS011;9280;50.276;18.650;2022-07-23T07:31:11;37.50;;;16.30;;
18308;SDS011;9280;50.276;18.650;2022-07-23T07:33:59;24.67;;;14.73;;
18308;SDS011;9280;50.276;18.650;2022-07-23T07:36:45;28.70;;;15.30;;
18308;SDS011;9280;50.276;18.650;2022-07-23T07:39:32;20.47;;;14.27;;
18308;SDS011;9280;50.276;18.650;2022-07-23T07:42:19;27.90;;;14.00;;
18308;SDS011;9280;50.276;18.650;2022-07-23T07:45:05;23.90;;;14.57;;
18308;SDS011;9280;50.276;18.650;2022-07-23T07:47:52;21.83;;;13.97;;
18308;SDS011;9280;50.276;18.650;2022-07-23T07:50:40;22.30;;;14.20;;
18308;SDS011;9280;50.276;18.650;2022-07-23T07:53:27;30.77;;;14.57;;
18308;SDS011;9280;50.276;18.650;2022-07-23T07:56:16;27.63;;;13.90;;
18308;SDS011;9280;50.276;18.650;2022-07-23T07:59:06;20.97;;;13.43;;
18308;SDS011;9280;50.276;18.650;2022-07-23T08:01:57;27.93;;;14.33;;
18308;SDS011;9280;50.276;18.650;2022-07-23T08:05:00;18.60;;;13.10;;
18308;SDS011;9280;50.276;18.650;2022-07-23T08:07:54;21.93;;;14.00;;
18308;SDS011;9280;50.276;18.650;2022-07-23T08:10:42;19.93;;;12.70;;
18308;SDS011;9280;50.276;18.650;2022-07-23T08:13:29;21.23;;;12.93;;
18308;SDS011;9280;50.276;18.650;2022-07-23T08:16:18;19.37;;;12.03;;
18308;SDS011;9280;50.276;18.650;2022-07-23T08:19:05;16.90;;;11.83;;
18308;SDS011;9280;50.276;18.650;2022-07-23T08:21:52;18.87;;;11.80;;
18308;SDS011;9280;50.276;18.650;2022-07-23T08:24:43;16.30;;;11.27;;
18308;SDS011;9280;50.276;18.650;2022-07-23T08:27:30;13.00;;;9.53;;
18308;SDS011;9280;50.276;18.650;2022-07-23T08:30:16;16.60;;;10.10;;
18308;SDS011;9280;50.276;18.650;2022-07-23T08:33:04;21.87;;;11.23;;
18308;SDS011;9280;50.276;18.650;2022-07-23T08:35:55;15.50;;;9.10;;
18308;SDS011;9280;50.276;18.650;2022-07-23T08:38:42;17.30;;;9.93;;
18308;SDS011;9280;50.276;18.650;2022-07-23T08:41:30;14.83;;;9.97;;
18308;SDS011;9280;50.276;18.650;2022-07-23T08:44:19;15.30;;;8.53;;
18308;SDS011;9280;50.276;18.650;2022-07-23T08:47:06;12.67;;;8.30;;
18308;SDS011;9280;50.276;18.650;2022-07-23T08:49:56;16.33;;;8.53;;
18308;SDS011;9280;50.276;18.650;2022-07-23T08:52:43;15.30;;;8.57;;
18308;SDS011;9280;50.276;18.650;2022-07-23T08:55:30;20.67;;;9.03;;
18308;SDS011;9280;50.276;18.650;2022-07-23T08:58:21;31.13;;;12.07;;
18308;SDS011;9280;50.276;18.650;2022-07-23T09:01:08;11.57;;;9.03;;
18308;SDS011;9280;50.276;18.650;2022-07-23T09:03:55;12.50;;;9.03;;
18308;SDS011;9280;50.276;18.650;2022-07-23T09:06:44;19.23;;;9.27;;
18308;SDS011;9280;50.276;18.650;2022-07-23T09:09:31;12.90;;;9.23;;
18308;SDS011;9280;50.276;18.650;2022-07-23T09:12:20;13.63;;;9.30;;
18308;SDS011;9280;50.276;18.650;2022-07-23T09:15:13;19.20;;;7.90;;
18308;SDS011;9280;50.276;18.650;2022-07-23T09:17:59;18.07;;;8.13;;
18308;SDS011;9280;50.276;18.650;2022-07-23T09:20:46;12.77;;;6.63;;
18308;SDS011;9280;50.276;18.650;2022-07-23T09:23:36;7.43;;;6.43;;
18308;SDS011;9280;50.276;18.650;2022-07-23T09:26:29;17.33;;;7.90;;
18308;SDS011;9280;50.276;18.650;2022-07-23T09:29:19;18.20;;;7.73;;
18308;SDS011;9280;50.276;18.650;2022-07-23T09:32:08;13.80;;;7.80;;
18308;SDS011;9280;50.276;18.650;2022-07-23T09:35:02;14.23;;;7.73;;
18308;SDS011;9280;50.276;18.650;2022-07-23T09:38:00;13.73;;;7.60;;
18308;SDS011;9280;50.276;18.650;2022-07-23T09:40:47;18.37;;;7.07;;
18308;SDS011;9280;50.276;18.650;2022-07-23T09:43:55;15.67;;;8.00;;
18308;SDS011;9280;50.276;18.650;2022-07-23T09:46:52;13.97;;;7.87;;
18308;SDS011;9280;50.276;18.650;2022-07-23T09:49:58;10.60;;;7.40;;
18308;SDS011;9280;50.276;18.650;2022-07-23T09:52:49;20.10;;;7.87;;
18308;SDS011;9280;50.276;18.650;2022-07-23T09:55:36;21.33;;;7.57;;
18308;SDS011;9280;50.276;18.650;2022-07-23T09:58:24;11.47;;;6.93;;
18308;SDS011;9280;50.276;18.650;2022-07-23T10:01:15;10.87;;;7.03;;
18308;SDS011;9280;50.276;18.650;2022-07-23T10:04:05;13.50;;;6.83;;
18308;SDS011;9280;50.276;18.650;2022-07-23T10:07:31;16.17;;;7.00;;
18308;SDS011;9280;50.276;18.650;2022-07-23T10:10:39;23.83;;;6.97;;
18308;SDS011;9280;50.276;18.650;2022-07-23T10:13:45;11.13;;;7.40;;
18308;SDS011;9280;50.276;18.650;2022-07-23T10:16:40;15.70;;;6.97;;
18308;SDS011;9280;50.276;18.650;2022-07-23T10:19:30;11.53;;;6.93;;
18308;SDS011;9280;50.276;18.650;2022-07-23T10:22:27;8.13;;;6.53;;
18308;SDS011;9280;50.276;18.650;2022-07-23T10:25:18;7.77;;;7.07;;
18308;SDS011;9280;50.276;18.650;2022-07-23T10:28:24;14.53;;;6.70;;
18308;SDS011;9280;50.276;18.650;2022-07-23T10:31:35;10.80;;;7.40;;
18308;SDS011;9280;50.276;18.650;2022-07-23T10:34:48;9.73;;;7.10;;
18308;SDS011;9280;50.276;18.650;2022-07-23T10:37:47;11.37;;;7.00;;
18308;SDS011;9280;50.276;18.650;2022-07-23T10:40:53;14.63;;;8.07;;
18308;SDS011;9280;50.276;18.650;2022-07-23T10:43:41;9.80;;;6.93;;
18308;SDS011;9280;50.276;18.650;2022-07-23T10:46:27;13.53;;;7.10;;
18308;SDS011;9280;50.276;18.650;2022-07-23T10:49:24;7.83;;;6.53;;
18308;SDS011;9280;50.276;18.650;2022-07-23T10:52:15;8.07;;;6.63;;
18308;SDS011;9280;50.276;18.650;2022-07-23T10:58:45;9.90;;;7.10;;
18308;SDS011;9280;50.276;18.650;2022-07-23T11:01:34;8.40;;;6.47;;
18308;SDS011;9280;50.276;18.650;2022-07-23T11:04:27;11.23;;;7.63;;
18308;SDS011;9280;50.276;18.650;2022-07-23T11:07:36;16.03;;;7.40;;
18308;SDS011;9280;50.276;18.650;2022-07-23T11:10:50;8.43;;;6.47;;
18308;SDS011;9280;50.276;18.650;2022-07-23T11:13:39;9.73;;;6.40;;
18308;SDS011;9280;50.276;18.650;2022-07-23T11:16:27;9.37;;;7.63;;
18308;SDS011;9280;50.276;18.650;2022-07-23T11:19:13;10.17;;;6.93;;
18308;SDS011;9280;50.276;18.650;2022-07-23T11:22:02;10.40;;;7.23;;
18308;SDS011;9280;50.276;18.650;2022-07-23T11:24:52;10.87;;;7.17;;
18308;SDS011;9280;50.276;18.650;2022-07-23T11:27:44;8.63;;;7.00;;
18308;SDS011;9280;50.276;18.650;2022-07-23T11:30:37;8.70;;;7.13;;
18308;SDS011;9280;50.276;18.650;2022-07-23T11:33:25;7.23;;;6.53;;
18308;SDS011;9280;50.276;18.650;2022-07-23T11:36:12;7.47;;;6.70;;
18308;SDS011;9280;50.276;18.650;2022-07-23T11:39:04;16.17;;;7.03;;
18308;SDS011;9280;50.276;18.650;2022-07-23T11:41:59;11.90;;;7.53;;
18308;SDS011;9280;50.276;18.650;2022-07-23T11:44:51;8.40;;;6.33;;
18308;SDS011;9280;50.276;18.650;2022-07-23T11:47:39;17.63;;;6.97;;
18308;SDS011;9280;50.276;18.650;2022-07-23T11:50:28;9.90;;;7.23;;
18308;SDS011;9280;50.276;18.650;2022-07-23T11:53:21;10.53;;;6.50;;
18308;SDS011;9280;50.276;18.650;2022-07-23T11:56:09;10.07;;;6.17;;
18308;SDS011;9280;50.276;18.650;2022-07-23T11:58:57;12.03;;;6.57;;
18308;SDS011;9280;50.276;18.650;2022-07-23T12:01:57;9.03;;;6.73;;
18308;SDS011;9280;50.276;18.650;2022-07-23T12:04:50;9.93;;;6.87;;
18308;SDS011;9280;50.276;18.650;2022-07-23T12:07:38;10.13;;;7.03;;
18308;SDS011;9280;50.276;18.650;2022-07-23T12:10:36;13.90;;;7.77;;
18308;SDS011;9280;50.276;18.650;2022-07-23T12:13:27;12.73;;;6.97;;
18308;SDS011;9280;50.276;18.650;2022-07-23T12:16:14;9.43;;;6.67;;
18308;SDS011;9280;50.276;18.650;2022-07-23T12:19:05;9.77;;;7.10;;
18308;SDS011;9280;50.276;18.650;2022-07-23T12:22:03;17.10;;;7.67;;
18308;SDS011;9280;50.276;18.650;2022-07-23T12:24:56;10.33;;;7.20;;
18308;SDS011;9280;50.276;18.650;2022-07-23T12:27:45;9.70;;;6.77;;
18308;SDS011;9280;50.276;18.650;2022-07-23T12:30:33;7.77;;;6.57;;
18308;SDS011;9280;50.276;18.650;2022-07-23T12:33:27;9.77;;;6.63;;
18308;SDS011;9280;50.276;18.650;2022-07-23T12:36:16;10.80;;;7.00;;
18308;SDS011;9280;50.276;18.650;2022-07-23T12:39:03;7.57;;;6.30;;
18308;SDS011;9280;50.276;18.650;2022-07-23T12:41:53;9.70;;;6.43;;
18308;SDS011;9280;50.276;18.650;2022-07-23T12:48:02;8.93;;;6.17;;
18308;SDS011;9280;50.276;18.650;2022-07-23T12:50:57;8.17;;;6.70;;
18308;SDS011;9280;50.276;18.650;2022-07-23T12:53:48;11.90;;;7.00;;
18308;SDS011;9280;50.276;18.650;2022-07-23T12:56:36;9.43;;;6.67;;
18308;SDS011;9280;50.276;18.650;2022-07-23T12:59:30;7.70;;;6.57;;
18308;SDS011;9280;50.276;18.650;2022-07-23T13:02:17;13.43;;;7.00;;
18308;SDS011;9280;50.276;18.650;2022-07-23T13:05:06;8.20;;;6.30;;
18308;SDS011;9280;50.276;18.650;2022-07-23T13:07:52;7.60;;;6.57;;
18308;SDS011;9280;50.276;18.650;2022-07-23T13:10:40;7.67;;;6.27;;
18308;SDS011;9280;50.276;18.650;2022-07-23T13:13:29;7.90;;;6.33;;
18308;SDS011;9280;50.276;18.650;2022-07-23T13:16:17;12.47;;;6.57;;
18308;SDS011;9280;50.276;18.650;2022-07-23T13:19:06;19.73;;;7.27;;
18308;SDS011;9280;50.276;18.650;2022-07-23T13:21:54;13.73;;;7.10;;
18308;SDS011;9280;50.276;18.650;2022-07-23T13:24:40;10.47;;;6.97;;
18308;SDS011;9280;50.276;18.650;2022-07-23T13:27:28;13.10;;;7.33;;
18308;SDS011;9280;50.276;18.650;2022-07-23T13:30:15;11.77;;;6.67;;
18308;SDS011;9280;50.276;18.650;2022-07-23T13:33:02;7.17;;;6.47;;
18308;SDS011;9280;50.276;18.650;2022-07-23T13:35:49;9.87;;;6.93;;
18308;SDS011;9280;50.276;18.650;2022-07-23T13:38:37;8.63;;;6.70;;
18308;SDS011;9280;50.276;18.650;2022-07-23T13:41:28;9.10;;;6.37;;
18308;SDS011;9280;50.276;18.650;2022-07-23T13:44:23;15.50;;;7.47;;
18308;SDS011;9280;50.276;18.650;2022-07-23T13:47:09;26.50;;;7.10;;
18308;SDS011;9280;50.276;18.650;2022-07-23T13:49:56;15.97;;;7.73;;
18308;SDS011;9280;50.276;18.650;2022-07-23T13:52:43;31.60;;;8.07;;
18308;SDS011;9280;50.276;18.650;2022-07-23T13:55:29;19.40;;;8.80;;
18308;SDS011;9280;50.276;18.650;2022-07-23T13:58:16;21.33;;;8.23;;
18308;SDS011;9280;50.276;18.650;2022-07-23T14:01:04;12.47;;;8.23;;
18308;SDS011;9280;50.276;18.650;2022-07-23T14:03:50;19.73;;;8.23;;
18308;SDS011;9280;50.276;18.650;2022-07-23T14:06:37;15.97;;;8.07;;
18308;SDS011;9280;50.276;18.650;2022-07-23T14:09:23;17.67;;;8.10;;
18308;SDS011;9280;50.276;18.650;2022-07-23T14:12:10;21.03;;;8.60;;
18308;SDS011;9280;50.276;18.650;2022-07-23T14:14:57;18.10;;;8.30;;
18308;SDS011;9280;50.276;18.650;2022-07-23T14:17:45;17.60;;;8.27;;
18308;SDS011;9280;50.276;18.650;2022-07-23T14:20:31;13.00;;;8.07;;
18308;SDS011;9280;50.276;18.650;2022-07-23T14:23:18;15.17;;;8.50;;
18308;SDS011;9280;50.276;18.650;2022-07-23T14:26:04;15.37;;;8.63;;
18308;SDS011;9280;50.276;18.650;2022-07-23T14:28:51;18.50;;;8.67;;
18308;SDS011;9280;50.276;18.650;2022-07-23T14:31:37;12.67;;;8.03;;
18308;SDS011;9280;50.276;18.650;2022-07-23T14:34:25;14.77;;;9.03;;
18308;SDS011;9280;50.276;18.650;2022-07-23T14:37:12;11.00;;;8.23;;
18308;SDS011;9280;50.276;18.650;2022-07-23T14:39:58;11.50;;;7.87;;
18308;SDS011;9280;50.276;18.650;2022-07-23T14:42:45;17.63;;;9.10;;
18308;SDS011;9280;50.276;18.650;2022-07-23T14:45:31;14.20;;;9.47;;
18308;SDS011;9280;50.276;18.650;2022-07-23T14:48:18;15.53;;;9.40;;
18308;SDS011;9280;50.276;18.650;2022-07-23T14:51:06;19.60;;;9.60;;
18308;SDS011;9280;50.276;18.650;2022-07-23T14:53:53;14.47;;;9.10;;
18308;SDS011;9280;50.276;18.650;2022-07-23T14:56:39;16.10;;;9.67;;
18308;SDS011;9280;50.276;18.650;2022-07-23T14:59:26;15.33;;;9.40;;
18308;SDS011;9280;50.276;18.650;2022-07-23T15:02:12;13.30;;;8.80;;
18308;SDS011;9280;50.276;18.650;2022-07-23T15:04:59;12.83;;;9.23;;
18308;SDS011;9280;50.276;18.650;2022-07-23T15:07:48;13.20;;;8.70;;
18308;SDS011;9280;50.276;18.650;2022-07-23T15:10:35;12.03;;;9.80;;
18308;SDS011;9280;50.276;18.650;2022-07-23T15:13:22;11.77;;;8.70;;
18308;SDS011;9280;50.276;18.650;2022-07-23T15:16:08;11.13;;;8.80;;
18308;SDS011;9280;50.276;18.650;2022-07-23T15:18:55;15.80;;;9.43;;
18308;SDS011;9280;50.276;18.650;2022-07-23T15:21:42;15.10;;;9.77;;
18308;SDS011;9280;50.276;18.650;2022-07-23T15:24:29;12.23;;;9.77;;
18308;SDS011;9280;50.276;18.650;2022-07-23T15:27:16;11.93;;;9.37;;
18308;SDS011;9280;50.276;18.650;2022-07-23T15:30:05;17.13;;;9.63;;
18308;SDS011;9280;50.276;18.650;2022-07-23T15:32:52;14.33;;;9.63;;
18308;SDS011;9280;50.276;18.650;2022-07-23T15:35:38;16.30;;;9.63;;
18308;SDS011;9280;50.276;18.650;2022-07-23T15:38:25;13.83;;;10.07;;
18308;SDS011;9280;50.276;18.650;2022-07-23T15:41:13;16.23;;;10.80;;
18308;SDS011;9280;50.276;18.650;2022-07-23T15:44:00;14.60;;;10.77;;
18308;SDS011;9280;50.276;18.650;2022-07-23T15:46:47;14.87;;;9.80;;
18308;SDS011;9280;50.276;18.650;2022-07-23T15:49:33;15.97;;;10.63;;
18308;SDS011;9280;50.276;18.650;2022-07-23T15:52:20;17.67;;;9.67;;
18308;SDS011;9280;50.276;18.650;2022-07-23T15:55:07;13.07;;;9.87;;
18308;SDS011;9280;50.276;18.650;2022-07-23T15:57:55;19.60;;;10.30;;
18308;SDS011;9280;50.276;18.650;2022-07-23T16:00:42;16.83;;;11.03;;
18308;SDS011;9280;50.276;18.650;2022-07-23T16:03:27;15.87;;;10.53;;
18308;SDS011;9280;50.276;18.650;2022-07-23T16:06:14;14.77;;;11.07;;
18308;SDS011;9280;50.276;18.650;2022-07-23T16:09:00;13.37;;;10.17;;
18308;SDS011;9280;50.276;18.650;2022-07-23T16:11:47;15.93;;;10.80;;
18308;SDS011;9280;50.276;18.650;2022-07-23T16:14:34;16.17;;;10.73;;
18308;SDS011;9280;50.276;18.650;2022-07-23T16:17:21;17.63;;;10.57;;
18308;SDS011;9280;50.276;18.650;2022-07-23T16:20:08;20.40;;;11.57;;
18308;SDS011;9280;50.276;18.650;2022-07-23T16:22:55;17.87;;;10.47;;
18308;SDS011;9280;50.276;18.650;2022-07-23T16:25:41;15.37;;;10.57;;
18308;SDS011;9280;50.276;18.650;2022-07-23T16:28:28;15.27;;;10.60;;
18308;SDS011;9280;50.276;18.650;2022-07-23T16:31:15;18.93;;;10.97;;
18308;SDS011;9280;50.276;18.650;2022-07-23T16:34:02;15.73;;;10.80;;
18308;SDS011;9280;50.276;18.650;2022-07-23T16:36:48;15.93;;;11.00;;
18308;SDS011;9280;50.276;18.650;2022-07-23T16:39:34;15.60;;;10.87;;
18308;SDS011;9280;50.276;18.650;2022-07-23T16:42:20;14.70;;;11.83;;
18308;SDS011;9280;50.276;18.650;2022-07-23T16:45:07;14.70;;;11.70;;